createdAt,value
2022-09-15T00:24:29.729Z,6
2022-09-15T00:53:27.183Z,5
2022-09-15T01:22:17.248Z,4
2022-09-15T01:50:30.436Z,4
2022-09-15T02:18:51.287Z,4
2022-09-15T02:47:10.835Z,4
2022-09-15T03:15:22.361Z,4
2022-09-15T03:43:39.928Z,4
2022-09-15T04:11:59.058Z,4
2022-09-15T04:40:46.606Z,4
2022-09-15T05:09:45.160Z,4
2022-09-15T05:38:37.094Z,4
2022-09-15T06:07:13.597Z,5
2022-09-15T06:36:11.316Z,4
2022-09-15T07:04:33.921Z,4
2022-09-15T07:32:59.589Z,4
2022-09-15T08:01:55.348Z,4
2022-09-15T08:30:50.135Z,3
2022-09-15T08:58:59.487Z,4
2022-09-15T09:27:24.643Z,5
2022-09-15T09:55:47.636Z,5
2022-09-15T10:24:01.686Z,5
2022-09-15T10:52:47.113Z,3
2022-09-15T11:21:55.936Z,10
2022-09-15T11:50:11.974Z,10
2022-09-15T12:18:41.865Z,7
2022-09-15T12:46:54.592Z,8
2022-09-15T13:15:12.091Z,7
2022-09-15T13:43:24.542Z,5
2022-09-15T14:11:31.246Z,7
2022-09-15T14:40:31.172Z,7
2022-09-15T15:09:17.791Z,7
2022-09-15T15:38:01.175Z,8
2022-09-15T16:07:00.783Z,7
2022-09-15T16:35:54.837Z,7
2022-09-15T17:04:42.798Z,8
2022-09-15T17:33:34.246Z,9
2022-09-15T18:02:24.241Z,10
2022-09-15T18:31:16.209Z,10
2022-09-15T19:00:02.090Z,11
2022-09-15T19:28:54.107Z,10
2022-09-15T19:57:40.442Z,10
2022-09-15T20:26:35.800Z,11
2022-09-15T20:55:28.363Z,11
2022-09-15T21:23:58.258Z,11
2022-09-15T21:52:20.188Z,11
2022-09-15T22:20:35.647Z,11
2022-09-15T22:48:50.290Z,11
2022-09-15T23:17:08.600Z,11
2022-09-15T23:45:20.560Z,11
